sensor_id;sensor_type;location;lat;lon;timestamp;temperature;humidity
79049;DHT22;68680;50.764;6.120;2024-02-16T00:01:55;13.20;99.90
79049;DHT22;68680;50.764;6.120;2024-02-16T00:04:21;13.20;99.90
79049;DHT22;68680;50.764;6.120;2024-02-16T00:06:46;13.20;99.90
79049;DHT22;68680;50.764;6.120;2024-02-16T00:09:12;13.30;99.90
79049;DHT22;68680;50.764;6.120;2024-02-16T00:11:38;13.30;99.90
79049;DHT22;68680;50.764;6.120;2024-02-16T00:14:05;13.40;99.90
79049;DHT22;68680;50.764;6.120;2024-02-16T00:16:31;13.40;99.90
79049;DHT22;68680;50.764;6.120;2024-02-16T00:18:57;13.50;99.90
79049;DHT22;68680;50.764;6.120;2024-02-16T00:21:23;13.50;99.90
79049;DHT22;68680;50.764;6.120;2024-02-16T00:23:48;13.60;99.90
79049;DHT22;68680;50.764;6.120;2024-02-16T00:26:14;13.60;99.90
79049;DHT22;68680;50.764;6.120;2024-02-16T00:28:40;13.70;99.90
79049;DHT22;68680;50.764;6.120;2024-02-16T00:31:07;13.70;99.90
79049;DHT22;68680;50.764;6.120;2024-02-16T00:33:33;13.70;99.90
79049;DHT22;68680;50.764;6.120;2024-02-16T00:35:59;13.70;99.90
79049;DHT22;68680;50.764;6.120;2024-02-16T00:38:24;13.70;99.90
79049;DHT22;68680;50.764;6.120;2024-02-16T00:40:50;13.80;99.90
79049;DHT22;68680;50.764;6.120;2024-02-16T00:43:16;13.80;99.90
79049;DHT22;68680;50.764;6.120;2024-02-16T00:45:42;13.80;99.60
79049;DHT22;68680;50.764;6.120;2024-02-16T00:48:09;13.80;99.60
79049;DHT22;68680;50.764;6.120;2024-02-16T00:50:35;13.80;99.50
79049;DHT22;68680;50.764;6.120;2024-02-16T00:53:00;13.90;99.90
79049;DHT22;68680;50.764;6.120;2024-02-16T00:55:26;14.00;99.50
79049;DHT22;68680;50.764;6.120;2024-02-16T00:57:52;14.00;99.40
79049;DHT22;68680;50.764;6.120;2024-02-16T01:00:18;14.10;99.20
79049;DHT22;68680;50.764;6.120;2024-02-16T01:02:44;14.20;99.00
79049;DHT22;68680;50.764;6.120;2024-02-16T01:05:11;14.20;99.20
79049;DHT22;68680;50.764;6.120;2024-02-16T01:07:37;14.20;99.30
79049;DHT22;68680;50.764;6.120;2024-02-16T01:10:03;14.20;99.90
79049;DHT22;68680;50.764;6.120;2024-02-16T01:12:29;14.20;99.60
79049;DHT22;68680;50.764;6.120;2024-02-16T01:14:55;14.20;99.90
79049;DHT22;68680;50.764;6.120;2024-02-16T01:17:21;14.20;99.90
79049;DHT22;68680;50.764;6.120;2024-02-16T01:19:46;14.20;99.90
79049;DHT22;68680;50.764;6.120;2024-02-16T01:22:13;14.20;99.90
79049;DHT22;68680;50.764;6.120;2024-02-16T01:24:39;14.20;99.90
79049;DHT22;68680;50.764;6.120;2024-02-16T01:27:05;14.20;99.90
79049;DHT22;68680;50.764;6.120;2024-02-16T01:29:31;14.10;99.90
79049;DHT22;68680;50.764;6.120;2024-02-16T01:31:57;14.20;99.90
79049;DHT22;68680;50.764;6.120;2024-02-16T01:34:22;14.20;99.90
79049;DHT22;68680;50.764;6.120;2024-02-16T01:36:48;14.20;99.90
79049;DHT22;68680;50.764;6.120;2024-02-16T01:39:15;14.20;99.90
79049;DHT22;68680;50.764;6.120;2024-02-16T01:41:41;14.20;99.90
79049;DHT22;68680;50.764;6.120;2024-02-16T01:44:07;14.10;99.90
79049;DHT22;68680;50.764;6.120;2024-02-16T01:46:34;14.00;99.90
79049;DHT22;68680;50.764;6.120;2024-02-16T01:49:00;14.00;99.90
79049;DHT22;68680;50.764;6.120;2024-02-16T01:51:27;14.00;99.90
79049;DHT22;68680;50.764;6.120;2024-02-16T01:53:53;14.10;99.90
79049;DHT22;68680;50.764;6.120;2024-02-16T01:56:21;14.20;99.90
79049;DHT22;68680;50.764;6.120;2024-02-16T01:58:47;14.20;99.90
79049;DHT22;68680;50.764;6.120;2024-02-16T02:01:13;14.10;99.90
79049;DHT22;68680;50.764;6.120;2024-02-16T02:03:39;14.00;99.90
79049;DHT22;68680;50.764;6.120;2024-02-16T02:06:05;13.90;99.90
79049;DHT22;68680;50.764;6.120;2024-02-16T02:08:31;13.90;99.90
79049;DHT22;68680;50.764;6.120;2024-02-16T02:10:57;13.80;99.90
79049;DHT22;68680;50.764;6.120;2024-02-16T02:13:24;13.90;99.90
79049;DHT22;68680;50.764;6.120;2024-02-16T02:15:50;13.80;99.90
79049;DHT22;68680;50.764;6.120;2024-02-16T02:18:16;13.90;99.90
79049;DHT22;68680;50.764;6.120;2024-02-16T02:20:41;13.90;99.90
79049;DHT22;68680;50.764;6.120;2024-02-16T02:23:09;13.90;99.90
79049;DHT22;68680;50.764;6.120;2024-02-16T02:25:34;13.90;99.90
79049;DHT22;68680;50.764;6.120;2024-02-16T02:28:00;14.00;99.90
79049;DHT22;68680;50.764;6.120;2024-02-16T02:30:26;14.00;99.90
79049;DHT22;68680;50.764;6.120;2024-02-16T02:32:52;14.00;99.90
79049;DHT22;68680;50.764;6.120;2024-02-16T02:35:18;14.00;99.90
79049;DHT22;68680;50.764;6.120;2024-02-16T02:37:44;14.00;99.90
79049;DHT22;68680;50.764;6.120;2024-02-16T02:40:12;14.00;99.90
79049;DHT22;68680;50.764;6.120;2024-02-16T02:42:38;14.00;99.90
79049;DHT22;68680;50.764;6.120;2024-02-16T02:45:04;14.00;99.90
79049;DHT22;68680;50.764;6.120;2024-02-16T02:47:31;14.00;99.90
79049;DHT22;68680;50.764;6.120;2024-02-16T02:49:57;14.10;99.90
79049;DHT22;68680;50.764;6.120;2024-02-16T02:52:22;14.10;99.90
79049;DHT22;68680;50.764;6.120;2024-02-16T02:54:48;14.10;99.90
79049;DHT22;68680;50.764;6.120;2024-02-16T02:57:15;14.00;99.90
79049;DHT22;68680;50.764;6.120;2024-02-16T02:59:41;14.00;99.90
79049;DHT22;68680;50.764;6.120;2024-02-16T03:02:07;14.00;99.90
79049;DHT22;68680;50.764;6.120;2024-02-16T03:04:32;14.00;99.90
79049;DHT22;68680;50.764;6.120;2024-02-16T03:06:58;14.00;99.90
79049;DHT22;68680;50.764;6.120;2024-02-16T03:09:24;14.00;99.90
79049;DHT22;68680;50.764;6.120;2024-02-16T03:11:50;13.90;99.90
79049;DHT22;68680;50.764;6.120;2024-02-16T03:14:17;13.90;99.90
79049;DHT22;68680;50.764;6.120;2024-02-16T03:16:43;13.90;99.90
79049;DHT22;68680;50.764;6.120;2024-02-16T03:19:09;13.90;99.90
79049;DHT22;68680;50.764;6.120;2024-02-16T03:21:34;13.90;99.90
79049;DHT22;68680;50.764;6.120;2024-02-16T03:24:01;13.90;99.90
79049;DHT22;68680;50.764;6.120;2024-02-16T03:26:27;13.90;99.90
79049;DHT22;68680;50.764;6.120;2024-02-16T03:28:53;13.90;99.90
79049;DHT22;68680;50.764;6.120;2024-02-16T03:31:21;13.90;99.90
79049;DHT22;68680;50.764;6.120;2024-02-16T03:33:49;13.80;99.90
79049;DHT22;68680;50.764;6.120;2024-02-16T03:36:16;13.80;99.90
79049;DHT22;68680;50.764;6.120;2024-02-16T03:38:42;13.80;99.90
79049;DHT22;68680;50.764;6.120;2024-02-16T03:41:08;13.80;99.90
79049;DHT22;68680;50.764;6.120;2024-02-16T03:43:36;13.70;99.90
79049;DHT22;68680;50.764;6.120;2024-02-16T03:46:02;13.70;99.90
79049;DHT22;68680;50.764;6.120;2024-02-16T03:48:30;13.70;99.90
79049;DHT22;68680;50.764;6.120;2024-02-16T03:50:55;13.60;99.90
79049;DHT22;68680;50.764;6.120;2024-02-16T03:53:21;13.60;99.90
79049;DHT22;68680;50.764;6.120;2024-02-16T03:55:47;13.50;99.90
79049;DHT22;68680;50.764;6.120;2024-02-16T03:58:13;13.50;99.90
79049;DHT22;68680;50.764;6.120;2024-02-16T04:00:38;13.50;99.90
79049;DHT22;68680;50.764;6.120;2024-02-16T04:03:04;13.40;99.90
79049;DHT22;68680;50.764;6.120;2024-02-16T04:05:31;13.40;99.90
79049;DHT22;68680;50.764;6.120;2024-02-16T04:07:57;13.40;99.90
79049;DHT22;68680;50.764;6.120;2024-02-16T04:10:23;13.40;99.90
79049;DHT22;68680;50.764;6.120;2024-02-16T04:12:49;13.40;99.90
79049;DHT22;68680;50.764;6.120;2024-02-16T04:15:14;13.30;99.90
79049;DHT22;68680;50.764;6.120;2024-02-16T04:17:40;13.30;99.90
79049;DHT22;68680;50.764;6.120;2024-02-16T04:20:07;13.20;99.90
79049;DHT22;68680;50.764;6.120;2024-02-16T04:22:34;13.30;99.90
79049;DHT22;68680;50.764;6.120;2024-02-16T04:25:00;13.30;99.90
79049;DHT22;68680;50.764;6.120;2024-02-16T04:27:26;13.20;99.90
79049;DHT22;68680;50.764;6.120;2024-02-16T04:29:51;13.20;99.90
79049;DHT22;68680;50.764;6.120;2024-02-16T04:32:17;13.20;99.90
79049;DHT22;68680;50.764;6.120;2024-02-16T04:34:43;13.20;99.90
79049;DHT22;68680;50.764;6.120;2024-02-16T04:37:09;13.30;99.90
79049;DHT22;68680;50.764;6.120;2024-02-16T04:39:36;13.30;99.90
79049;DHT22;68680;50.764;6.120;2024-02-16T04:42:02;13.40;99.90
79049;DHT22;68680;50.764;6.120;2024-02-16T04:44:28;13.50;99.90
79049;DHT22;68680;50.764;6.120;2024-02-16T04:46:54;13.40;99.90
79049;DHT22;68680;50.764;6.120;2024-02-16T04:49:20;13.50;99.90
79049;DHT22;68680;50.764;6.120;2024-02-16T04:51:45;13.50;99.90
79049;DHT22;68680;50.764;6.120;2024-02-16T04:54:11;13.60;99.90
79049;DHT22;68680;50.764;6.120;2024-02-16T04:56:38;13.60;99.90
79049;DHT22;68680;50.764;6.120;2024-02-16T04:59:04;13.60;99.90
79049;DHT22;68680;50.764;6.120;2024-02-16T05:01:30;13.70;99.90
79049;DHT22;68680;50.764;6.120;2024-02-16T05:03:56;13.80;99.90
79049;DHT22;68680;50.764;6.120;2024-02-16T05:06:23;13.70;99.90
79049;DHT22;68680;50.764;6.120;2024-02-16T05:08:48;13.70;99.90
79049;DHT22;68680;50.764;6.120;2024-02-16T05:11:14;13.80;99.90
79049;DHT22;68680;50.764;6.120;2024-02-16T05:13:41;13.80;99.90
79049;DHT22;68680;50.764;6.120;2024-02-16T05:16:08;13.80;99.90
79049;DHT22;68680;50.764;6.120;2024-02-16T05:18:34;13.80;99.90
79049;DHT22;68680;50.764;6.120;2024-02-16T05:21:00;13.80;99.90
79049;DHT22;68680;50.764;6.120;2024-02-16T05:23:26;13.80;99.90
79049;DHT22;68680;50.764;6.120;2024-02-16T05:25:51;13.80;99.90
79049;DHT22;68680;50.764;6.120;2024-02-16T05:28:17;13.70;99.90
79049;DHT22;68680;50.764;6.120;2024-02-16T05:30:44;13.70;99.90
79049;DHT22;68680;50.764;6.120;2024-02-16T05:33:10;13.60;99.90
79049;DHT22;68680;50.764;6.120;2024-02-16T05:35:36;13.60;99.90
79049;DHT22;68680;50.764;6.120;2024-02-16T05:38:02;13.50;99.90
79049;DHT22;68680;50.764;6.120;2024-02-16T05:40:28;13.40;99.90
79049;DHT22;68680;50.764;6.120;2024-02-16T05:42:55;13.40;99.90
79049;DHT22;68680;50.764;6.120;2024-02-16T05:45:22;13.30;99.90
79049;DHT22;68680;50.764;6.120;2024-02-16T05:47:50;13.30;99.90
79049;DHT22;68680;50.764;6.120;2024-02-16T05:50:16;13.20;99.90
79049;DHT22;68680;50.764;6.120;2024-02-16T05:52:43;13.20;99.90
79049;DHT22;68680;50.764;6.120;2024-02-16T05:55:10;13.20;99.90
79049;DHT22;68680;50.764;6.120;2024-02-16T05:57:37;13.20;99.90
79049;DHT22;68680;50.764;6.120;2024-02-16T06:00:04;13.10;99.90
79049;DHT22;68680;50.764;6.120;2024-02-16T06:02:32;13.10;99.90
79049;DHT22;68680;50.764;6.120;2024-02-16T06:05:00;13.10;99.90
79049;DHT22;68680;50.764;6.120;2024-02-16T06:07:26;13.10;99.90
79049;DHT22;68680;50.764;6.120;2024-02-16T06:09:52;13.20;99.90
79049;DHT22;68680;50.764;6.120;2024-02-16T06:12:20;13.10;99.90
79049;DHT22;68680;50.764;6.120;2024-02-16T06:14:46;13.10;99.90
79049;DHT22;68680;50.764;6.120;2024-02-16T06:17:12;13.10;99.90
79049;DHT22;68680;50.764;6.120;2024-02-16T06:19:38;13.10;99.90
79049;DHT22;68680;50.764;6.120;2024-02-16T06:22:05;13.10;99.90
79049;DHT22;68680;50.764;6.120;2024-02-16T06:24:31;13.10;99.90
79049;DHT22;68680;50.764;6.120;2024-02-16T06:26:57;13.20;99.90
79049;DHT22;68680;50.764;6.120;2024-02-16T06:29:23;13.20;99.90
79049;DHT22;68680;50.764;6.120;2024-02-16T06:31:48;13.30;99.90
79049;DHT22;68680;50.764;6.120;2024-02-16T06:34:14;13.30;99.90
79049;DHT22;68680;50.764;6.120;2024-02-16T06:36:41;13.30;99.90
79049;DHT22;68680;50.764;6.120;2024-02-16T06:39:08;13.40;99.90
79049;DHT22;68680;50.764;6.120;2024-02-16T06:41:34;13.40;99.90
79049;DHT22;68680;50.764;6.120;2024-02-16T06:44:00;13.50;99.90
79049;DHT22;68680;50.764;6.120;2024-02-16T06:46:26;13.50;99.90
79049;DHT22;68680;50.764;6.120;2024-02-16T06:48:52;13.50;99.90
79049;DHT22;68680;50.764;6.120;2024-02-16T06:51:18;13.50;99.90
79049;DHT22;68680;50.764;6.120;2024-02-16T06:53:44;13.50;99.90
79049;DHT22;68680;50.764;6.120;2024-02-16T06:56:11;13.40;99.90
79049;DHT22;68680;50.764;6.120;2024-02-16T06:58:37;13.40;99.90
79049;DHT22;68680;50.764;6.120;2024-02-16T07:01:03;13.40;99.90
79049;DHT22;68680;50.764;6.120;2024-02-16T07:03:29;13.40;99.90
79049;DHT22;68680;50.764;6.120;2024-02-16T07:05:55;13.40;99.90
79049;DHT22;68680;50.764;6.120;2024-02-16T07:08:21;13.40;99.90
79049;DHT22;68680;50.764;6.120;2024-02-16T07:10:47;13.30;99.90
79049;DHT22;68680;50.764;6.120;2024-02-16T07:13:14;13.30;99.90
79049;DHT22;68680;50.764;6.120;2024-02-16T07:15:40;13.30;99.90
79049;DHT22;68680;50.764;6.120;2024-02-16T07:18:06;13.30;99.90
79049;DHT22;68680;50.764;6.120;2024-02-16T07:20:31;13.30;99.90
79049;DHT22;68680;50.764;6.120;2024-02-16T07:22:57;13.30;99.90
79049;DHT22;68680;50.764;6.120;2024-02-16T07:25:23;13.30;99.90
79049;DHT22;68680;50.764;6.120;2024-02-16T07:27:49;13.30;99.90
79049;DHT22;68680;50.764;6.120;2024-02-16T07:30:17;13.30;99.90
79049;DHT22;68680;50.764;6.120;2024-02-16T07:32:43;13.30;99.90
79049;DHT22;68680;50.764;6.120;2024-02-16T07:35:08;13.30;99.90
79049;DHT22;68680;50.764;6.120;2024-02-16T07:37:34;13.30;99.90
79049;DHT22;68680;50.764;6.120;2024-02-16T07:40:00;13.30;99.90
79049;DHT22;68680;50.764;6.120;2024-02-16T07:42:26;13.30;99.90
79049;DHT22;68680;50.764;6.120;2024-02-16T07:44:53;13.30;99.90
79049;DHT22;68680;50.764;6.120;2024-02-16T07:47:20;13.30;99.90
79049;DHT22;68680;50.764;6.120;2024-02-16T07:49:46;13.30;99.90
79049;DHT22;68680;50.764;6.120;2024-02-16T07:52:12;13.30;99.90
79049;DHT22;68680;50.764;6.120;2024-02-16T07:54:38;13.40;99.90
79049;DHT22;68680;50.764;6.120;2024-02-16T07:57:04;13.40;99.90
79049;DHT22;68680;50.764;6.120;2024-02-16T07:59:30;13.40;99.90
79049;DHT22;68680;50.764;6.120;2024-02-16T08:01:56;13.50;99.90
79049;DHT22;68680;50.764;6.120;2024-02-16T08:04:23;13.50;99.90
79049;DHT22;68680;50.764;6.120;2024-02-16T08:06:49;13.50;99.90
79049;DHT22;68680;50.764;6.120;2024-02-16T08:09:15;13.50;99.90
79049;DHT22;68680;50.764;6.120;2024-02-16T08:11:41;13.50;99.90
79049;DHT22;68680;50.764;6.120;2024-02-16T08:14:07;13.50;99.90
79049;DHT22;68680;50.764;6.120;2024-02-16T08:16:33;13.50;99.90
79049;DHT22;68680;50.764;6.120;2024-02-16T08:18:59;13.60;99.90
79049;DHT22;68680;50.764;6.120;2024-02-16T08:21:26;13.60;99.90
79049;DHT22;68680;50.764;6.120;2024-02-16T08:23:52;13.70;99.90
79049;DHT22;68680;50.764;6.120;2024-02-16T08:26:17;13.70;99.90
79049;DHT22;68680;50.764;6.120;2024-02-16T08:28:44;13.70;99.90
79049;DHT22;68680;50.764;6.120;2024-02-16T08:31:10;13.80;99.90
79049;DHT22;68680;50.764;6.120;2024-02-16T08:33:35;13.80;99.90
79049;DHT22;68680;50.764;6.120;2024-02-16T08:36:01;13.80;99.90
79049;DHT22;68680;50.764;6.120;2024-02-16T08:38:29;13.90;99.90
79049;DHT22;68680;50.764;6.120;2024-02-16T08:40:55;13.90;99.90
79049;DHT22;68680;50.764;6.120;2024-02-16T08:43:21;13.90;99.90
79049;DHT22;68680;50.764;6.120;2024-02-16T08:45:47;14.00;99.90
79049;DHT22;68680;50.764;6.120;2024-02-16T08:48:13;14.00;99.90
79049;DHT22;68680;50.764;6.120;2024-02-16T08:50:39;14.10;99.90
79049;DHT22;68680;50.764;6.120;2024-02-16T08:53:05;14.10;99.90
79049;DHT22;68680;50.764;6.120;2024-02-16T08:55:32;14.10;99.90
79049;DHT22;68680;50.764;6.120;2024-02-16T08:57:58;14.00;99.90
79049;DHT22;68680;50.764;6.120;2024-02-16T09:00:24;14.00;99.90
79049;DHT22;68680;50.764;6.120;2024-02-16T09:02:49;14.10;99.90
79049;DHT22;68680;50.764;6.120;2024-02-16T09:05:15;14.10;99.90
79049;DHT22;68680;50.764;6.120;2024-02-16T09:07:41;14.00;99.90
79049;DHT22;68680;50.764;6.120;2024-02-16T09:10:08;14.00;99.90
79049;DHT22;68680;50.764;6.120;2024-02-16T09:12:35;14.00;99.90
79049;DHT22;68680;50.764;6.120;2024-02-16T09:15:01;14.10;99.90
79049;DHT22;68680;50.764;6.120;2024-02-16T09:17:27;14.00;99.90
79049;DHT22;68680;50.764;6.120;2024-02-16T09:19:53;14.00;99.90
79049;DHT22;68680;50.764;6.120;2024-02-16T09:22:18;14.00;99.90
79049;DHT22;68680;50.764;6.120;2024-02-16T09:24:44;14.00;99.90
79049;DHT22;68680;50.764;6.120;2024-02-16T09:27:10;14.20;99.90
79049;DHT22;68680;50.764;6.120;2024-02-16T09:29:37;14.40;99.90
79049;DHT22;68680;50.764;6.120;2024-02-16T09:32:04;14.80;99.90
79049;DHT22;68680;50.764;6.120;2024-02-16T09:34:30;14.70;99.90
79049;DHT22;68680;50.764;6.120;2024-02-16T09:36:56;14.60;99.90
79049;DHT22;68680;50.764;6.120;2024-02-16T09:39:22;14.50;99.90
79049;DHT22;68680;50.764;6.120;2024-02-16T09:41:50;14.50;99.90
79049;DHT22;68680;50.764;6.120;2024-02-16T09:44:16;14.50;99.90
79049;DHT22;68680;50.764;6.120;2024-02-16T09:46:44;14.50;99.90
79049;DHT22;68680;50.764;6.120;2024-02-16T09:49:10;14.40;99.90
79049;DHT22;68680;50.764;6.120;2024-02-16T09:51:37;14.40;99.90
79049;DHT22;68680;50.764;6.120;2024-02-16T09:54:03;14.30;99.90
79049;DHT22;68680;50.764;6.120;2024-02-16T09:56:29;14.40;99.90
79049;DHT22;68680;50.764;6.120;2024-02-16T09:58:55;14.40;99.90
79049;DHT22;68680;50.764;6.120;2024-02-16T10:01:22;14.50;99.90
79049;DHT22;68680;50.764;6.120;2024-02-16T10:03:50;14.50;99.90
79049;DHT22;68680;50.764;6.120;2024-02-16T10:06:16;14.60;99.90
79049;DHT22;68680;50.764;6.120;2024-02-16T10:08:50;14.60;99.90
79049;DHT22;68680;50.764;6.120;2024-02-16T10:11:18;14.60;99.90
79049;DHT22;68680;50.764;6.120;2024-02-16T10:13:54;14.60;99.90
79049;DHT22;68680;50.764;6.120;2024-02-16T10:16:20;14.70;99.90
79049;DHT22;68680;50.764;6.120;2024-02-16T10:18:46;14.70;99.90
79049;DHT22;68680;50.764;6.120;2024-02-16T10:21:13;14.70;99.90
79049;DHT22;68680;50.764;6.120;2024-02-16T10:23:59;14.70;99.90
79049;DHT22;68680;50.764;6.120;2024-02-16T10:26:26;14.80;99.90
79049;DHT22;68680;50.764;6.120;2024-02-16T10:28:54;14.80;99.90
79049;DHT22;68680;50.764;6.120;2024-02-16T10:31:22;14.80;99.90
79049;DHT22;68680;50.764;6.120;2024-02-16T10:33:49;14.80;99.90
79049;DHT22;68680;50.764;6.120;2024-02-16T10:36:17;14.80;99.90
79049;DHT22;68680;50.764;6.120;2024-02-16T10:38:44;14.80;99.90
79049;DHT22;68680;50.764;6.120;2024-02-16T10:41:13;14.80;99.90
79049;DHT22;68680;50.764;6.120;2024-02-16T10:43:40;14.90;99.90
79049;DHT22;68680;50.764;6.120;2024-02-16T10:46:06;14.80;99.90
79049;DHT22;68680;50.764;6.120;2024-02-16T10:48:33;14.80;99.90
79049;DHT22;68680;50.764;6.120;2024-02-16T10:50:59;14.80;99.90
79049;DHT22;68680;50.764;6.120;2024-02-16T10:53:28;14.80;99.90
79049;DHT22;68680;50.764;6.120;2024-02-16T10:55:57;14.80;99.90
79049;DHT22;68680;50.764;6.120;2024-02-16T10:58:23;14.70;99.90
79049;DHT22;68680;50.764;6.120;2024-02-16T11:00:50;14.70;99.90
79049;DHT22;68680;50.764;6.120;2024-02-16T11:03:17;14.70;99.90
79049;DHT22;68680;50.764;6.120;2024-02-16T11:05:46;14.60;99.90
79049;DHT22;68680;50.764;6.120;2024-02-16T11:08:14;14.60;99.90
79049;DHT22;68680;50.764;6.120;2024-02-16T11:10:41;14.50;99.90
79049;DHT22;68680;50.764;6.120;2024-02-16T11:13:22;14.50;99.90
79049;DHT22;68680;50.764;6.120;2024-02-16T11:15:56;14.50;99.90
79049;DHT22;68680;50.764;6.120;2024-02-16T11:18:23;14.50;99.90
79049;DHT22;68680;50.764;6.120;2024-02-16T11:20:49;14.50;99.90
79049;DHT22;68680;50.764;6.120;2024-02-16T11:23:15;14.40;99.90
79049;DHT22;68680;50.764;6.120;2024-02-16T11:25:50;14.40;99.90
79049;DHT22;68680;50.764;6.120;2024-02-16T11:28:16;14.30;99.90
79049;DHT22;68680;50.764;6.120;2024-02-16T11:30:44;14.30;99.90
79049;DHT22;68680;50.764;6.120;2024-02-16T11:33:10;14.30;99.90
79049;DHT22;68680;50.764;6.120;2024-02-16T11:35:36;14.30;99.90
79049;DHT22;68680;50.764;6.120;2024-02-16T11:38:03;14.20;99.90
79049;DHT22;68680;50.764;6.120;2024-02-16T11:40:29;14.20;99.90
79049;DHT22;68680;50.764;6.120;2024-02-16T11:43:00;14.20;99.90
79049;DHT22;68680;50.764;6.120;2024-02-16T11:45:26;14.10;99.90
79049;DHT22;68680;50.764;6.120;2024-02-16T11:48:03;14.10;99.90
79049;DHT22;68680;50.764;6.120;2024-02-16T11:50:30;14.10;99.90
79049;DHT22;68680;50.764;6.120;2024-02-16T11:52:56;14.00;99.90
79049;DHT22;68680;50.764;6.120;2024-02-16T11:55:22;14.00;99.90
79049;DHT22;68680;50.764;6.120;2024-02-16T11:57:48;14.00;99.90
79049;DHT22;68680;50.764;6.120;2024-02-16T12:00:16;14.00;99.90
79049;DHT22;68680;50.764;6.120;2024-02-16T12:02:42;13.90;99.90
79049;DHT22;68680;50.764;6.120;2024-02-16T12:05:08;13.90;99.90
79049;DHT22;68680;50.764;6.120;2024-02-16T12:07:37;13.90;99.90
79049;DHT22;68680;50.764;6.120;2024-02-16T12:10:03;13.90;99.90
79049;DHT22;68680;50.764;6.120;2024-02-16T12:12:33;13.90;99.90
79049;DHT22;68680;50.764;6.120;2024-02-16T12:14:59;13.80;99.90
79049;DHT22;68680;50.764;6.120;2024-02-16T12:17:26;13.70;99.90
79049;DHT22;68680;50.764;6.120;2024-02-16T12:19:52;13.60;99.90
79049;DHT22;68680;50.764;6.120;2024-02-16T12:22:19;13.50;99.90
79049;DHT22;68680;50.764;6.120;2024-02-16T12:24:45;13.50;99.90
79049;DHT22;68680;50.764;6.120;2024-02-16T12:27:11;13.60;99.90
79049;DHT22;68680;50.764;6.120;2024-02-16T12:29:37;13.50;99.90
79049;DHT22;68680;50.764;6.120;2024-02-16T12:32:04;13.50;99.90
79049;DHT22;68680;50.764;6.120;2024-02-16T12:34:32;13.50;99.90
79049;DHT22;68680;50.764;6.120;2024-02-16T12:36:58;13.40;99.90
79049;DHT22;68680;50.764;6.120;2024-02-16T12:39:24;13.30;99.90
79049;DHT22;68680;50.764;6.120;2024-02-16T12:41:50;13.30;99.90
79049;DHT22;68680;50.764;6.120;2024-02-16T12:44:16;13.30;99.90
79049;DHT22;68680;50.764;6.120;2024-02-16T12:46:42;13.40;99.90
79049;DHT22;68680;50.764;6.120;2024-02-16T12:49:07;13.30;99.90
79049;DHT22;68680;50.764;6.120;2024-02-16T12:51:35;13.30;99.90
79049;DHT22;68680;50.764;6.120;2024-02-16T12:54:01;13.30;99.90
79049;DHT22;68680;50.764;6.120;2024-02-16T12:56:26;13.30;99.90
79049;DHT22;68680;50.764;6.120;2024-02-16T12:58:52;13.20;99.90
79049;DHT22;68680;50.764;6.120;2024-02-16T13:01:18;13.20;99.90
79049;DHT22;68680;50.764;6.120;2024-02-16T13:03:44;13.20;99.90
79049;DHT22;68680;50.764;6.120;2024-02-16T13:06:10;13.10;99.90
79049;DHT22;68680;50.764;6.120;2024-02-16T13:08:37;13.00;99.90
79049;DHT22;68680;50.764;6.120;2024-02-16T13:11:03;12.90;99.90
79049;DHT22;68680;50.764;6.120;2024-02-16T13:13:29;12.80;99.90
79049;DHT22;68680;50.764;6.120;2024-02-16T13:15:55;12.80;99.90
79049;DHT22;68680;50.764;6.120;2024-02-16T13:18:21;12.80;99.90
79049;DHT22;68680;50.764;6.120;2024-02-16T13:20:47;12.80;99.90
79049;DHT22;68680;50.764;6.120;2024-02-16T13:23:13;12.80;99.90
79049;DHT22;68680;50.764;6.120;2024-02-16T13:25:40;12.80;99.90
79049;DHT22;68680;50.764;6.120;2024-02-16T13:28:06;12.80;99.90
79049;DHT22;68680;50.764;6.120;2024-02-16T13:30:32;12.80;99.90
79049;DHT22;68680;50.764;6.120;2024-02-16T13:32:58;12.80;99.90
79049;DHT22;68680;50.764;6.120;2024-02-16T13:35:24;12.80;99.90
79049;DHT22;68680;50.764;6.120;2024-02-16T13:37:50;12.80;99.90
79049;DHT22;68680;50.764;6.120;2024-02-16T13:40:16;12.80;99.90
79049;DHT22;68680;50.764;6.120;2024-02-16T13:42:43;12.70;99.90
79049;DHT22;68680;50.764;6.120;2024-02-16T13:45:10;12.60;99.90
79049;DHT22;68680;50.764;6.120;2024-02-16T13:47:36;12.60;99.90
79049;DHT22;68680;50.764;6.120;2024-02-16T13:50:02;12.60;99.90
79049;DHT22;68680;50.764;6.120;2024-02-16T13:52:28;12.50;99.90
79049;DHT22;68680;50.764;6.120;2024-02-16T13:54:54;12.50;99.90
79049;DHT22;68680;50.764;6.120;2024-02-16T13:57:20;12.40;99.90
79049;DHT22;68680;50.764;6.120;2024-02-16T13:59:47;12.40;99.90
79049;DHT22;68680;50.764;6.120;2024-02-16T14:02:13;12.40;99.90
79049;DHT22;68680;50.764;6.120;2024-02-16T14:04:39;12.40;99.90
79049;DHT22;68680;50.764;6.120;2024-02-16T14:07:06;12.40;99.90
79049;DHT22;68680;50.764;6.120;2024-02-16T14:09:31;12.40;99.90
79049;DHT22;68680;50.764;6.120;2024-02-16T14:11:58;12.40;99.90
79049;DHT22;68680;50.764;6.120;2024-02-16T14:14:24;12.40;99.90
79049;DHT22;68680;50.764;6.120;2024-02-16T14:16:51;12.40;99.90
79049;DHT22;68680;50.764;6.120;2024-02-16T14:19:17;12.40;99.90
79049;DHT22;68680;50.764;6.120;2024-02-16T14:21:43;12.40;99.90
79049;DHT22;68680;50.764;6.120;2024-02-16T14:24:09;12.40;99.90
79049;DHT22;68680;50.764;6.120;2024-02-16T14:26:35;12.40;99.90
79049;DHT22;68680;50.764;6.120;2024-02-16T14:29:01;12.40;99.90
79049;DHT22;68680;50.764;6.120;2024-02-16T14:31:27;12.40;99.90
79049;DHT22;68680;50.764;6.120;2024-02-16T14:33:54;12.40;99.90
79049;DHT22;68680;50.764;6.120;2024-02-16T14:36:20;12.40;99.90
79049;DHT22;68680;50.764;6.120;2024-02-16T14:38:46;12.40;99.90
79049;DHT22;68680;50.764;6.120;2024-02-16T14:41:13;12.40;99.90
79049;DHT22;68680;50.764;6.120;2024-02-16T14:43:39;12.40;99.90
79049;DHT22;68680;50.764;6.120;2024-02-16T14:46:05;12.40;99.90
79049;DHT22;68680;50.764;6.120;2024-02-16T14:48:30;12.30;99.90
79049;DHT22;68680;50.764;6.120;2024-02-16T14:50:58;12.40;99.90
79049;DHT22;68680;50.764;6.120;2024-02-16T14:53:24;12.30;99.90
79049;DHT22;68680;50.764;6.120;2024-02-16T14:55:50;12.40;99.90
79049;DHT22;68680;50.764;6.120;2024-02-16T14:58:16;12.30;99.90
79049;DHT22;68680;50.764;6.120;2024-02-16T15:00:42;12.30;99.90
79049;DHT22;68680;50.764;6.120;2024-02-16T15:03:08;12.30;99.90
79049;DHT22;68680;50.764;6.120;2024-02-16T15:05:34;12.30;99.90
79049;DHT22;68680;50.764;6.120;2024-02-16T15:08:02;12.20;99.90
79049;DHT22;68680;50.764;6.120;2024-02-16T15:10:29;12.20;99.90
79049;DHT22;68680;50.764;6.120;2024-02-16T15:12:55;12.20;99.90
79049;DHT22;68680;50.764;6.120;2024-02-16T15:15:20;12.20;99.90
79049;DHT22;68680;50.764;6.120;2024-02-16T15:17:47;12.20;99.90
79049;DHT22;68680;50.764;6.120;2024-02-16T15:20:12;12.10;99.90
79049;DHT22;68680;50.764;6.120;2024-02-16T15:22:38;12.10;99.90
79049;DHT22;68680;50.764;6.120;2024-02-16T15:25:06;12.10;99.90